Time;durP1;ratioP1;P1;durP2;ratioP2;P2;SDS_P1;SDS_P2;PMS_P1;PMS_P2;Temp;Humidity;BMP_temperature;BMP_pressure;BME280_temperature;BME280_humidity;BME280_pressure;Samples;Min_cycle;Max_cycle;Signal;HPM_P1;HPM_P2
2022/12/09 00:00:27;;;;;;;15.20;12.27;;;;;;;;;;5095677;28;20654;-65
2022/12/09 00:02:54;;;;;;;14.95;12.52;;;;;;;;;;5095882;28;20191;-65
2022/12/09 00:05:22;;;;;;;16.50;11.45;;;;;;;;;;5095619;28;20201;-65
2022/12/09 00:07:49;;;;;;;13.77;11.50;;;;;;;;;;5095261;28;20648;-65
2022/12/09 00:10:16;;;;;;;15.48;11.77;;;;;;;;;;5095571;28;20196;-65
2022/12/09 00:12:43;;;;;;;13.90;11.95;;;;;;;;;;5095580;28;20189;-65
2022/12/09 00:15:10;;;;;;;16.80;12.00;;;;;;;;;;5095449;28;20212;-65
2022/12/09 00:17:37;;;;;;;16.10;11.60;;;;;;;;;;5095321;28;20634;-65
2022/12/09 00:20:05;;;;;;;14.15;11.27;;;;;;;;;;5093096;28;20194;-65
2022/12/09 00:22:33;;;;;;;16.08;12.20;;;;;;;;;;5094994;28;20191;-65
2022/12/09 00:25:00;;;;;;;16.63;13.18;;;;;;;;;;5095244;28;20585;-65
2022/12/09 00:27:27;;;;;;;14.18;11.15;;;;;;;;;;5095182;28;20196;-65
2022/12/09 00:29:54;;;;;;;14.68;11.68;;;;;;;;;;5095171;28;20191;-65
2022/12/09 00:32:21;;;;;;;16.00;11.73;;;;;;;;;;5095050;28;20191;-65
2022/12/09 00:34:49;;;;;;;18.20;13.48;;;;;;;;;;5095065;28;20557;-65
2022/12/09 00:37:15;;;;;;;17.42;13.00;;;;;;;;;;5094792;28;20628;-65
2022/12/09 00:39:44;;;;;;;14.40;11.90;;;;;;;;;;5095044;28;20195;-65
2022/12/09 00:42:11;;;;;;;18.55;12.27;;;;;;;;;;5094880;28;20203;-65
2022/12/09 00:44:37;;;;;;;14.10;12.05;;;;;;;;;;5094844;28;20218;-65
2022/12/09 00:47:05;;;;;;;14.45;12.02;;;;;;;;;;5094519;28;20224;-65
2022/12/09 00:49:32;;;;;;;15.05;11.93;;;;;;;;;;5094491;28;20201;-65
2022/12/09 00:51:59;;;;;;;17.50;11.90;;;;;;;;;;5094842;28;20292;-65
2022/12/09 00:54:26;;;;;;;40.25;25.40;;;;;;;;;;5094685;28;20189;-65
2022/12/09 00:56:55;;;;;;;20.02;14.85;;;;;;;;;;5094690;28;20191;-65
2022/12/09 00:59:22;;;;;;;19.40;13.52;;;;;;;;;;5094488;28;20612;-65
2022/12/09 01:01:49;;;;;;;14.20;12.60;;;;;;;;;;5094440;28;20194;-65
2022/12/09 01:04:16;;;;;;;15.45;12.45;;;;;;;;;;5093309;28;20447;-65
2022/12/09 01:06:43;;;;;;;15.05;12.18;;;;;;;;;;5094518;28;20194;-65
2022/12/09 01:09:12;;;;;;;15.38;12.82;;;;;;;;;;5094328;28;20191;-65
2022/12/09 01:11:39;;;;;;;15.68;12.10;;;;;;;;;;5094273;28;20194;-65
2022/12/09 01:14:07;;;;;;;14.63;11.55;;;;;;;;;;5094216;28;20187;-65
2022/12/09 01:16:34;;;;;;;16.52;13.65;;;;;;;;;;5094123;28;20198;-65
2022/12/09 01:19:03;;;;;;;13.75;11.32;;;;;;;;;;5094286;28;20297;-65
2022/12/09 01:21:30;;;;;;;17.17;12.90;;;;;;;;;;5094085;28;20637;-65
2022/12/09 01:23:57;;;;;;;17.35;12.05;;;;;;;;;;5094057;28;20675;-65
2022/12/09 01:26:24;;;;;;;14.57;11.18;;;;;;;;;;5094071;28;20197;-65
2022/12/09 01:28:53;;;;;;;15.77;12.45;;;;;;;;;;5093915;28;20190;-65
2022/12/09 01:31:23;;;;;;;16.17;12.38;;;;;;;;;;5093723;28;20242;-65
2022/12/09 01:33:50;;;;;;;14.18;11.48;;;;;;;;;;5094083;28;20194;-65
2022/12/09 01:36:18;;;;;;;16.90;12.15;;;;;;;;;;5093829;28;20224;-65
2022/12/09 01:38:45;;;;;;;16.15;12.88;;;;;;;;;;5093688;28;20719;-65
2022/12/09 01:41:12;;;;;;;17.98;12.20;;;;;;;;;;5093701;28;20198;-65
2022/12/09 01:43:39;;;;;;;19.02;14.73;;;;;;;;;;5093365;28;20189;-65
2022/12/09 01:46:06;;;;;;;16.75;12.68;;;;;;;;;;5093652;28;20196;-65
2022/12/09 01:48:37;;;;;;;17.10;13.65;;;;;;;;;;5093650;28;20235;-65
2022/12/09 01:51:09;;;;;;;18.95;12.52;;;;;;;;;;5092441;28;20195;-65
2022/12/09 01:53:38;;;;;;;18.30;13.20;;;;;;;;;;5093225;28;20207;-65
2022/12/09 01:56:07;;;;;;;21.05;13.32;;;;;;;;;;5093439;28;20193;-65
2022/12/09 01:58:34;;;;;;;16.70;13.40;;;;;;;;;;5092862;28;20281;-65
2022/12/09 02:01:01;;;;;;;17.63;13.63;;;;;;;;;;5093516;28;20192;-65
2022/12/09 02:03:28;;;;;;;16.70;12.98;;;;;;;;;;5093284;28;20276;-64
2022/12/09 02:05:56;;;;;;;19.08;12.45;;;;;;;;;;5093321;28;20192;-65
2022/12/09 02:08:23;;;;;;;16.05;12.35;;;;;;;;;;5093302;28;20561;-65
2022/12/09 02:10:53;;;;;;;20.08;13.13;;;;;;;;;;5092966;28;20277;-65
2022/12/09 02:13:25;;;;;;;21.77;13.38;;;;;;;;;;5093402;28;20204;-65
2022/12/09 02:15:53;;;;;;;19.08;13.73;;;;;;;;;;5093212;28;20279;-65
2022/12/09 02:18:23;;;;;;;20.42;14.02;;;;;;;;;;5092949;28;20268;-67
2022/12/09 02:20:54;;;;;;;21.65;15.23;;;;;;;;;;5093305;28;20186;-65
2022/12/09 02:23:24;;;;;;;17.40;13.65;;;;;;;;;;5092977;28;20192;-65
2022/12/09 02:25:55;;;;;;;20.92;13.13;;;;;;;;;;5093050;28;20583;-65
2022/12/09 02:28:34;;;;;;;18.98;13.55;;;;;;;;;;5093078;28;20197;-65
2022/12/09 02:31:04;;;;;;;27.08;13.70;;;;;;;;;;5092816;28;20195;-65
2022/12/09 02:33:39;;;;;;;27.45;14.85;;;;;;;;;;5092971;28;20641;-65
2022/12/09 02:36:09;;;;;;;21.65;13.60;;;;;;;;;;5093052;28;20193;-65
2022/12/09 02:38:38;;;;;;;16.55;12.35;;;;;;;;;;5092953;28;20195;-65
2022/12/09 02:41:07;;;;;;;25.38;12.43;;;;;;;;;;5092928;28;20187;-65
2022/12/09 02:43:36;;;;;;;19.35;11.98;;;;;;;;;;5092894;28;20211;-65
2022/12/09 02:46:04;;;;;;;18.83;11.70;;;;;;;;;;5092066;28;20225;-65
2022/12/09 02:48:34;;;;;;;17.58;12.50;;;;;;;;;;5091171;28;20195;-65
2022/12/09 02:51:03;;;;;;;36.92;12.20;;;;;;;;;;5092925;28;20296;-65
2022/12/09 02:53:31;;;;;;;15.65;11.32;;;;;;;;;;5092743;28;20190;-65
2022/12/09 02:55:59;;;;;;;26.00;12.40;;;;;;;;;;5092758;28;20285;-65
2022/12/09 02:58:26;;;;;;;29.08;14.23;;;;;;;;;;5092653;28;20191;-65
2022/12/09 03:00:55;;;;;;;21.15;10.95;;;;;;;;;;5092498;28;20676;-65
2022/12/09 03:03:22;;;;;;;17.55;13.10;;;;;;;;;;5092788;28;20277;-65
2022/12/09 03:05:52;;;;;;;27.98;12.98;;;;;;;;;;5092647;28;20224;-65
2022/12/09 03:08:25;;;;;;;21.85;14.20;;;;;;;;;;5092594;28;20200;-65
2022/12/09 03:10:56;;;;;;;19.48;13.00;;;;;;;;;;5092571;28;20281;-65
2022/12/09 03:13:29;;;;;;;21.15;14.32;;;;;;;;;;5092376;28;20193;-65
2022/12/09 03:15:59;;;;;;;19.27;12.63;;;;;;;;;;5092729;28;20276;-65
2022/12/09 03:18:27;;;;;;;23.58;13.10;;;;;;;;;;5092545;28;20187;-65
2022/12/09 03:20:54;;;;;;;18.50;12.55;;;;;;;;;;5092397;28;20289;-65
2022/12/09 03:23:25;;;;;;;18.35;13.02;;;;;;;;;;5092489;28;20273;-65
2022/12/09 03:25:54;;;;;;;21.92;13.88;;;;;;;;;;5092211;28;20550;-64
2022/12/09 03:28:23;;;;;;;20.48;13.68;;;;;;;;;;5094570;28;20266;-65
2022/12/09 03:30:52;;;;;;;20.27;12.57;;;;;;;;;;5096154;28;20612;-65
2022/12/09 03:33:19;;;;;;;21.15;13.93;;;;;;;;;;5096234;28;20653;-65
2022/12/09 03:35:50;;;;;;;23.75;14.68;;;;;;;;;;5096203;28;20201;-65
2022/12/09 03:38:18;;;;;;;20.95;14.05;;;;;;;;;;5095797;28;20305;-65
2022/12/09 03:40:47;;;;;;;23.52;13.75;;;;;;;;;;5096317;28;20192;-65
2022/12/09 03:43:19;;;;;;;21.15;14.40;;;;;;;;;;5096041;28;20276;-65
2022/12/09 03:45:46;;;;;;;20.42;13.98;;;;;;;;;;5096022;28;20228;-64
2022/12/09 03:48:13;;;;;;;20.30;13.55;;;;;;;;;;5095586;28;20225;-65
2022/12/09 03:50:42;;;;;;;18.08;13.63;;;;;;;;;;5095779;28;20281;-65
2022/12/09 03:53:11;;;;;;;23.98;13.55;;;;;;;;;;5095598;28;20306;-65
2022/12/09 03:55:40;;;;;;;23.80;15.07;;;;;;;;;;5095885;28;20305;-65
2022/12/09 03:58:08;;;;;;;20.55;13.57;;;;;;;;;;5095710;28;20204;-65
2022/12/09 04:00:37;;;;;;;18.55;12.52;;;;;;;;;;5095743;28;20277;-65
2022/12/09 04:03:04;;;;;;;17.98;12.73;;;;;;;;;;5095647;28;20285;-65
2022/12/09 04:05:31;;;;;;;20.05;13.18;;;;;;;;;;5095296;28;20217;-65
2022/12/09 04:07:58;;;;;;;17.20;12.82;;;;;;;;;;5095602;28;20191;-65
2022/12/09 04:10:25;;;;;;;21.88;13.88;;;;;;;;;;5095497;28;20194;-65
2022/12/09 04:12:52;;;;;;;22.02;13.73;;;;;;;;;;5095474;28;20185;-65
2022/12/09 04:15:19;;;;;;;21.85;14.15;;;;;;;;;;5095372;28;20193;-65
2022/12/09 04:17:47;;;;;;;19.20;14.13;;;;;;;;;;5095245;28;20190;-65
2022/12/09 04:20:14;;;;;;;16.55;11.93;;;;;;;;;;5095109;28;20196;-65
2022/12/09 04:22:41;;;;;;;18.23;12.40;;;;;;;;;;5095253;28;20664;-65
2022/12/09 04:25:08;;;;;;;19.02;12.18;;;;;;;;;;5093116;28;20226;-65
2022/12/09 04:27:35;;;;;;;17.08;11.88;;;;;;;;;;5093788;28;20281;-65
2022/12/09 04:30:02;;;;;;;17.10;12.40;;;;;;;;;;5093653;28;20195;-65
2022/12/09 04:32:30;;;;;;;15.73;10.95;;;;;;;;;;5094862;28;20200;-65
2022/12/09 04:34:58;;;;;;;14.32;10.20;;;;;;;;;;5095166;28;20290;-65
2022/12/09 04:37:25;;;;;;;14.25;10.50;;;;;;;;;;5095063;28;20300;-64
2022/12/09 04:39:52;;;;;;;16.38;10.65;;;;;;;;;;5093676;28;20229;-65
2022/12/09 04:42:19;;;;;;;15.32;10.48;;;;;;;;;;5094900;28;20550;-65
2022/12/09 04:44:45;;;;;;;15.70;11.63;;;;;;;;;;5094781;28;20208;-65
2022/12/09 04:47:12;;;;;;;13.88;9.82;;;;;;;;;;5094374;28;20229;-64
2022/12/09 04:49:39;;;;;;;15.05;10.77;;;;;;;;;;5094872;28;20193;-65
2022/12/09 04:52:07;;;;;;;13.50;10.75;;;;;;;;;;5094829;28;20616;-65
2022/12/09 04:54:34;;;;;;;16.00;11.95;;;;;;;;;;5094604;28;20189;-65
2022/12/09 04:57:01;;;;;;;16.10;11.63;;;;;;;;;;5094558;28;20204;-65
2022/12/09 04:59:29;;;;;;;16.90;11.50;;;;;;;;;;5094351;28;20192;-65
2022/12/09 05:01:56;;;;;;;13.80;10.60;;;;;;;;;;5094687;28;20197;-65
2022/12/09 05:04:22;;;;;;;13.18;10.50;;;;;;;;;;5094098;28;20610;-65
2022/12/09 05:06:49;;;;;;;15.15;10.90;;;;;;;;;;5094058;28;20226;-65
2022/12/09 05:09:18;;;;;;;17.48;11.57;;;;;;;;;;5094339;28;20212;-64
2022/12/09 05:11:45;;;;;;;15.40;10.00;;;;;;;;;;5094224;28;20193;-65
2022/12/09 05:14:12;;;;;;;14.95;10.82;;;;;;;;;;5091881;28;20285;-66
2022/12/09 05:16:38;;;;;;;16.33;11.60;;;;;;;;;;5094029;28;20656;-65
2022/12/09 05:19:05;;;;;;;15.50;10.38;;;;;;;;;;5094274;28;20191;-65
2022/12/09 05:21:32;;;;;;;14.75;11.30;;;;;;;;;;5093769;28;20272;-65
2022/12/09 05:23:59;;;;;;;17.65;12.60;;;;;;;;;;5094014;28;20860;-65
2022/12/09 05:26:29;;;;;;;17.23;11.60;;;;;;;;;;5093862;28;20225;-65
2022/12/09 05:28:56;;;;;;;20.55;13.05;;;;;;;;;;5093795;28;20199;-65
2022/12/09 05:31:23;;;;;;;16.73;12.27;;;;;;;;;;5093735;28;20240;-65
2022/12/09 05:33:51;;;;;;;16.33;11.88;;;;;;;;;;5093948;28;20188;-66
2022/12/09 05:36:19;;;;;;;19.33;11.90;;;;;;;;;;5093906;28;20250;-65
2022/12/09 05:38:46;;;;;;;15.15;11.30;;;;;;;;;;5093640;28;20656;-64
2022/12/09 05:41:13;;;;;;;16.40;11.45;;;;;;;;;;5093413;28;20652;-64
2022/12/09 05:43:42;;;;;;;19.92;12.02;;;;;;;;;;5093807;28;20199;-64
2022/12/09 05:46:09;;;;;;;18.83;12.48;;;;;;;;;;5093544;28;20646;-65
2022/12/09 05:48:36;;;;;;;17.50;11.68;;;;;;;;;;5093594;28;20186;-64
2022/12/09 05:51:04;;;;;;;17.00;11.73;;;;;;;;;;5093153;28;20185;-64
2022/12/09 05:53:31;;;;;;;18.45;12.48;;;;;;;;;;5093344;28;20195;-66
2022/12/09 05:55:58;;;;;;;18.88;11.90;;;;;;;;;;5093330;28;20666;-64
2022/12/09 05:58:25;;;;;;;14.63;10.48;;;;;;;;;;5093470;28;20185;-66
2022/12/09 06:00:55;;;;;;;20.48;12.85;;;;;;;;;;5093543;28;20635;-65
2022/12/09 06:03:22;;;;;;;18.67;12.93;;;;;;;;;;5093355;28;20618;-64
2022/12/09 06:05:49;;;;;;;19.23;12.40;;;;;;;;;;5092838;28;20219;-64
2022/12/09 06:08:16;;;;;;;19.88;12.73;;;;;;;;;;5093080;28;20189;-65
2022/12/09 06:10:43;;;;;;;41.33;13.68;;;;;;;;;;5093295;28;20645;-64
2022/12/09 06:13:10;;;;;;;18.58;12.82;;;;;;;;;;5093274;28;20196;-64
2022/12/09 06:15:37;;;;;;;20.58;12.95;;;;;;;;;;5093123;28;20285;-64
2022/12/09 06:18:05;;;;;;;18.05;11.90;;;;;;;;;;5092978;28;20598;-64
2022/12/09 06:20:32;;;;;;;17.90;11.75;;;;;;;;;;5092938;28;20276;-65
2022/12/09 06:22:59;;;;;;;19.50;11.95;;;;;;;;;;5093187;28;20561;-64
2022/12/09 06:25:26;;;;;;;15.35;11.23;;;;;;;;;;5093040;28;20304;-64
2022/12/09 06:27:53;;;;;;;17.50;11.60;;;;;;;;;;5092803;28;20229;-64
2022/12/09 06:30:20;;;;;;;15.32;10.23;;;;;;;;;;5092896;28;20190;-65
2022/12/09 06:32:47;;;;;;;14.32;10.23;;;;;;;;;;5093301;28;20192;-64
2022/12/09 06:35:15;;;;;;;15.38;11.40;;;;;;;;;;5092841;28;20308;-64
2022/12/09 06:37:42;;;;;;;15.60;10.13;;;;;;;;;;5092788;28;20614;-64
2022/12/09 06:40:10;;;;;;;12.95;9.23;;;;;;;;;;5092430;28;20197;-64
2022/12/09 06:42:37;;;;;;;14.55;9.77;;;;;;;;;;5092805;28;20189;-64
2022/12/09 06:45:04;;;;;;;14.13;10.35;;;;;;;;;;5092518;28;20200;-64
2022/12/09 06:47:31;;;;;;;12.90;9.27;;;;;;;;;;5092461;28;20223;-64
2022/12/09 06:50:00;;;;;;;13.52;9.90;;;;;;;;;;5091408;28;20284;-64
2022/12/09 06:52:28;;;;;;;16.90;9.63;;;;;;;;;;5092565;28;20185;-64
2022/12/09 06:54:55;;;;;;;11.60;8.73;;;;;;;;;;5092588;28;20192;-64
2022/12/09 06:57:22;;;;;;;13.75;9.13;;;;;;;;;;5092621;28;20211;-64
2022/12/09 06:59:49;;;;;;;21.10;8.73;;;;;;;;;;5092549;28;20283;-64
2022/12/09 07:02:16;;;;;;;11.38;8.00;;;;;;;;;;5092993;28;20229;-64
2022/12/09 07:04:43;;;;;;;12.25;8.85;;;;;;;;;;5096390;28;20195;-64
2022/12/09 07:07:10;;;;;;;14.05;9.43;;;;;;;;;;5096227;28;20710;-64
2022/12/09 07:09:38;;;;;;;11.88;8.85;;;;;;;;;;5096469;28;20184;-64
2022/12/09 07:12:06;;;;;;;16.90;9.23;;;;;;;;;;5096571;28;20195;-64
2022/12/09 07:14:33;;;;;;;17.08;9.43;;;;;;;;;;5096449;28;20276;-64
2022/12/09 07:17:01;;;;;;;14.57;9.80;;;;;;;;;;5095643;28;20194;-64
2022/12/09 07:19:27;;;;;;;19.13;9.85;;;;;;;;;;5094995;28;20243;-64
2022/12/09 07:21:56;;;;;;;22.50;10.45;;;;;;;;;;5095086;28;20189;-64
2022/12/09 07:24:23;;;;;;;16.05;10.20;;;;;;;;;;5096167;28;20198;-64
2022/12/09 07:26:51;;;;;;;12.85;9.18;;;;;;;;;;5096197;28;20213;-64
2022/12/09 07:29:18;;;;;;;12.90;8.95;;;;;;;;;;5096126;28;20295;-64
2022/12/09 07:31:46;;;;;;;16.17;10.25;;;;;;;;;;5095986;28;20186;-64
2022/12/09 07:34:13;;;;;;;17.15;9.20;;;;;;;;;;5096300;28;20186;-64
2022/12/09 07:36:40;;;;;;;15.98;8.95;;;;;;;;;;5096256;28;20531;-64
2022/12/09 07:39:08;;;;;;;13.90;9.15;;;;;;;;;;5096194;28;20617;-64
2022/12/09 07:41:35;;;;;;;11.95;8.90;;;;;;;;;;5095930;28;20192;-64
2022/12/09 07:44:03;;;;;;;12.70;8.70;;;;;;;;;;5093666;28;20285;-64
2022/12/09 07:46:30;;;;;;;14.20;8.90;;;;;;;;;;5095676;28;20237;-64
2022/12/09 07:48:57;;;;;;;12.18;8.45;;;;;;;;;;5095911;28;20670;-64
2022/12/09 07:51:24;;;;;;;8.52;6.40;;;;;;;;;;5095769;28;20287;-64
2022/12/09 07:53:51;;;;;;;9.75;7.60;;;;;;;;;;5095643;28;20196;-64
2022/12/09 07:56:18;;;;;;;10.15;7.43;;;;;;;;;;5095663;28;20285;-64
2022/12/09 07:58:47;;;;;;;10.07;7.15;;;;;;;;;;5095389;28;20276;-64
2022/12/09 08:01:16;;;;;;;9.93;7.40;;;;;;;;;;5095735;28;20281;-64
2022/12/09 08:03:43;;;;;;;9.88;7.07;;;;;;;;;;5095653;28;20199;-64
2022/12/09 08:06:12;;;;;;;9.15;6.72;;;;;;;;;;5095476;28;20300;-64
2022/12/09 08:08:39;;;;;;;8.98;7.15;;;;;;;;;;5095395;28;20195;-64
2022/12/09 08:11:09;;;;;;;9.00;7.40;;;;;;;;;;5095362;28;20194;-64
2022/12/09 08:13:36;;;;;;;10.23;7.18;;;;;;;;;;5095253;28;20278;-64
2022/12/09 08:16:04;;;;;;;10.48;7.00;;;;;;;;;;5095323;28;20190;-64
2022/12/09 08:18:32;;;;;;;8.27;6.35;;;;;;;;;;5095347;28;20185;-65
2022/12/09 08:20:59;;;;;;;9.60;7.43;;;;;;;;;;5094866;28;20189;-65
2022/12/09 08:23:26;;;;;;;8.60;6.90;;;;;;;;;;5095246;28;20275;-62
2022/12/09 08:25:53;;;;;;;11.38;7.25;;;;;;;;;;5094697;28;20310;-59
2022/12/09 08:28:20;;;;;;;9.75;6.60;;;;;;;;;;5095118;28;20199;-68
2022/12/09 08:30:47;;;;;;;12.63;7.45;;;;;;;;;;5094558;28;20196;-73
2022/12/09 08:33:14;;;;;;;9.20;7.15;;;;;;;;;;5094955;28;20275;-60
2022/12/09 08:35:43;;;;;;;9.60;7.80;;;;;;;;;;5094866;28;20225;-60
2022/12/09 08:38:10;;;;;;;10.20;6.30;;;;;;;;;;5094794;28;20283;-61
2022/12/09 08:40:37;;;;;;;8.00;6.70;;;;;;;;;;5094757;28;20189;-65
2022/12/09 08:43:05;;;;;;;9.48;7.30;;;;;;;;;;5094967;28;20189;-67
2022/12/09 08:45:34;;;;;;;10.23;7.60;;;;;;;;;;5102940;28;20614;-63
2022/12/09 08:48:01;;;;;;;9.80;6.93;;;;;;;;;;5094273;28;20224;-65
2022/12/09 08:50:27;;;;;;;8.88;6.25;;;;;;;;;;5094713;28;20220;-63
2022/12/09 08:52:56;;;;;;;9.27;6.15;;;;;;;;;;5094531;28;20188;-64
2022/12/09 08:55:23;;;;;;;10.98;6.97;;;;;;;;;;5094703;28;20632;-68
2022/12/09 08:57:49;;;;;;;8.10;6.47;;;;;;;;;;5094511;28;20196;-62
2022/12/09 09:00:17;;;;;;;8.65;6.28;;;;;;;;;;5094704;28;20215;-61
2022/12/09 09:02:44;;;;;;;11.07;7.95;;;;;;;;;;5094320;28;20258;-68
2022/12/09 09:05:11;;;;;;;13.05;6.65;;;;;;;;;;5105553;28;20180;-63
2022/12/09 09:07:38;;;;;;;9.00;6.88;;;;;;;;;;5114836;28;20655;-64
2022/12/09 09:10:07;;;;;;;8.00;5.97;;;;;;;;;;5110120;28;20280;-65
2022/12/09 09:12:34;;;;;;;10.25;7.88;;;;;;;;;;5099440;28;20271;-64
2022/12/09 09:15:01;;;;;;;11.63;6.82;;;;;;;;;;5114631;28;20279;-66
2022/12/09 09:17:28;;;;;;;10.13;7.85;;;;;;;;;;5114015;28;20230;-64
2022/12/09 09:19:55;;;;;;;9.07;7.03;;;;;;;;;;5099847;28;20196;-64
2022/12/09 09:22:22;;;;;;;6.60;5.63;;;;;;;;;;5094336;28;20193;-64
2022/12/09 09:24:51;;;;;;;9.20;6.32;;;;;;;;;;5096469;28;20736;-67
2022/12/09 09:27:19;;;;;;;7.45;6.20;;;;;;;;;;5097683;28;20213;-65
2022/12/09 09:29:46;;;;;;;9.95;6.03;;;;;;;;;;5093968;28;20196;-68
2022/12/09 09:32:13;;;;;;;10.48;6.05;;;;;;;;;;5093513;28;20276;-66
2022/12/09 09:34:40;;;;;;;7.07;5.68;;;;;;;;;;5093445;28;20276;-63
2022/12/09 09:37:07;;;;;;;9.75;6.72;;;;;;;;;;5101647;28;20200;-63
2022/12/09 09:39:34;;;;;;;10.90;5.72;;;;;;;;;;5093733;28;20216;-62
2022/12/09 09:42:02;;;;;;;12.55;6.05;;;;;;;;;;5093555;28;20189;-63
2022/12/09 09:44:33;;;;;;;10.15;5.50;;;;;;;;;;5113159;28;20275;-65
2022/12/09 09:47:00;;;;;;;8.68;5.15;;;;;;;;;;5113595;28;20331;-62
2022/12/09 09:49:31;;;;;;;8.85;6.80;;;;;;;;;;5104645;28;20246;-78
2022/12/09 09:51:59;;;;;;;8.55;6.53;;;;;;;;;;5093241;28;20177;-68
2022/12/09 09:54:26;;;;;;;7.82;5.53;;;;;;;;;;5106411;28;20204;-65
2022/12/09 09:56:57;;;;;;;11.90;6.18;;;;;;;;;;5094150;28;20197;-65
2022/12/09 09:59:28;;;;;;;10.27;6.72;;;;;;;;;;5093250;28;20192;-65
2022/12/09 10:02:01;;;;;;;7.05;5.30;;;;;;;;;;5101917;28;20187;-72
2022/12/09 10:04:32;;;;;;;7.53;5.65;;;;;;;;;;5102479;28;20280;-64
2022/12/09 10:07:02;;;;;;;5.57;4.82;;;;;;;;;;5106757;28;20617;-70
2022/12/09 10:09:32;;;;;;;15.88;5.55;;;;;;;;;;5093022;28;20278;-70
2022/12/09 10:12:01;;;;;;;9.00;6.50;;;;;;;;;;5093248;28;20581;-63
2022/12/09 10:14:33;;;;;;;7.45;5.50;;;;;;;;;;5093277;28;20192;-68
2022/12/09 10:17:04;;;;;;;7.80;5.57;;;;;;;;;;5093341;28;20197;-59
2022/12/09 10:19:33;;;;;;;5.47;4.97;;;;;;;;;;5093382;28;20224;-66
2022/12/09 10:22:06;;;;;;;5.72;4.78;;;;;;;;;;5093064;28;20249;-62
2022/12/09 10:24:33;;;;;;;7.60;5.13;;;;;;;;;;5092039;28;20277;-61
2022/12/09 10:27:03;;;;;;;6.07;5.43;;;;;;;;;;5092551;28;20330;-62
2022/12/09 10:29:40;;;;;;;7.25;5.45;;;;;;;;;;5092990;28;20279;-62
2022/12/09 10:32:13;;;;;;;7.43;5.70;;;;;;;;;;5092728;28;20708;-65
2022/12/09 10:34:40;;;;;;;9.10;6.25;;;;;;;;;;5101318;28;20217;-62
2022/12/09 10:37:10;;;;;;;7.00;5.32;;;;;;;;;;5113727;28;20197;-78
2022/12/09 10:39:37;;;;;;;6.45;5.18;;;;;;;;;;5113489;28;20618;-62
2022/12/09 10:45:03;;;;;;;10.00;5.60;;;;;;;;;;5113191;28;20192;-65
2022/12/09 10:47:32;;;;;;;7.88;5.80;;;;;;;;;;5112793;28;20328;-62
2022/12/09 10:49:59;;;;;;;8.10;5.93;;;;;;;;;;5109819;28;20262;-59
2022/12/09 10:52:28;;;;;;;7.65;5.90;;;;;;;;;;5101595;28;20707;-64
2022/12/09 10:54:55;;;;;;;6.55;5.20;;;;;;;;;;5112980;28;20203;-65
2022/12/09 10:57:23;;;;;;;6.47;5.25;;;;;;;;;;5112874;28;20197;-61
2022/12/09 10:59:57;;;;;;;9.77;6.80;;;;;;;;;;5112870;28;20202;-62
2022/12/09 11:02:24;;;;;;;8.38;6.13;;;;;;;;;;5112648;28;20202;-68
2022/12/09 11:04:52;;;;;;;6.90;5.75;;;;;;;;;;5107415;28;20196;-64
2022/12/09 11:07:21;;;;;;;8.90;6.65;;;;;;;;;;5092381;28;20310;-64
2022/12/09 11:09:49;;;;;;;10.20;6.65;;;;;;;;;;5092575;28;20196;-80
2022/12/09 11:12:17;;;;;;;9.35;7.15;;;;;;;;;;5092436;28;20224;-68
2022/12/09 11:14:50;;;;;;;9.40;5.70;;;;;;;;;;5092035;28;20306;-66
2022/12/09 11:17:18;;;;;;;5.95;4.63;;;;;;;;;;5092086;28;20193;-62
2022/12/09 11:19:46;;;;;;;8.30;5.45;;;;;;;;;;5092609;28;20276;-63
2022/12/09 11:22:21;;;;;;;7.50;5.55;;;;;;;;;;5092442;28;20288;-60
2022/12/09 11:24:48;;;;;;;5.72;4.97;;;;;;;;;;5092207;28;20196;-66
2022/12/09 11:27:26;;;;;;;4.80;4.30;;;;;;;;;;5092278;28;20227;-64
2022/12/09 11:30:05;;;;;;;5.85;5.00;;;;;;;;;;5092314;28;20216;-63
2022/12/09 11:32:32;;;;;;;6.68;5.28;;;;;;;;;;5092431;28;20621;-64
2022/12/09 11:34:59;;;;;;;9.75;5.68;;;;;;;;;;5092000;28;20189;-64
2022/12/09 11:37:28;;;;;;;5.78;5.13;;;;;;;;;;5092099;28;20276;-60
2022/12/09 11:39:55;;;;;;;9.98;5.40;;;;;;;;;;5094798;28;20854;-60
2022/12/09 11:42:23;;;;;;;5.60;4.82;;;;;;;;;;5112665;28;20288;-60
2022/12/09 11:44:55;;;;;;;7.28;5.47;;;;;;;;;;5112708;28;20272;-60
2022/12/09 11:47:30;;;;;;;11.27;6.75;;;;;;;;;;5112377;28;20554;-60
2022/12/09 11:50:01;;;;;;;9.10;6.07;;;;;;;;;;5115467;28;20188;-60
2022/12/09 11:52:30;;;;;;;7.82;5.72;;;;;;;;;;5116282;28;20579;-60
2022/12/09 11:55:03;;;;;;;7.47;5.50;;;;;;;;;;5116319;28;20276;-60
2022/12/09 11:57:33;;;;;;;7.00;5.80;;;;;;;;;;5116244;28;20193;-60
2022/12/09 12:00:02;;;;;;;11.93;7.72;;;;;;;;;;5116103;28;20195;-60
2022/12/09 12:02:32;;;;;;;8.68;6.53;;;;;;;;;;5115960;28;20601;-60
2022/12/09 12:05:02;;;;;;;10.23;6.95;;;;;;;;;;5116402;28;20275;-60
2022/12/09 12:07:34;;;;;;;9.50;7.53;;;;;;;;;;5115980;28;20220;-60
2022/12/09 12:10:02;;;;;;;10.95;8.02;;;;;;;;;;5116115;28;20193;-60
2022/12/09 12:12:33;;;;;;;7.88;6.40;;;;;;;;;;5115980;28;20223;-60
2022/12/09 12:15:03;;;;;;;7.63;6.65;;;;;;;;;;5115801;28;20689;-60
2022/12/09 12:17:33;;;;;;;7.60;6.25;;;;;;;;;;5115987;28;20287;-60
2022/12/09 12:20:00;;;;;;;7.88;6.93;;;;;;;;;;5115894;28;20189;-60
2022/12/09 12:22:34;;;;;;;9.00;6.50;;;;;;;;;;5115778;28;20771;-60
2022/12/09 12:25:08;;;;;;;9.40;6.78;;;;;;;;;;5115767;28;20284;-60
2022/12/09 12:27:40;;;;;;;8.07;6.60;;;;;;;;;;5115139;28;20294;-60
2022/12/09 12:30:09;;;;;;;9.65;6.65;;;;;;;;;;5115777;28;20621;-61
2022/12/09 12:32:45;;;;;;;10.88;7.38;;;;;;;;;;5115681;28;20544;-60
2022/12/09 12:35:33;;;;;;;7.80;6.15;;;;;;;;;;5115652;28;20276;-60
2022/12/09 12:38:06;;;;;;;8.55;6.68;;;;;;;;;;5073230;28;20199;-60
2022/12/09 12:40:40;;;;;;;9.02;6.38;;;;;;;;;;5115613;28;20636;-60
2022/12/09 12:46:18;;;;;;;9.10;6.97;;;;;;;;;;5115192;28;20192;-61
2022/12/09 12:48:52;;;;;;;9.52;6.20;;;;;;;;;;5115297;28;20224;-60
2022/12/09 12:51:23;;;;;;;8.25;6.10;;;;;;;;;;5115406;28;20191;-60
2022/12/09 12:53:53;;;;;;;8.32;6.25;;;;;;;;;;5115270;28;20287;-60
2022/12/09 12:56:23;;;;;;;10.95;7.05;;;;;;;;;;5115123;28;20656;-60
2022/12/09 12:58:56;;;;;;;9.82;6.95;;;;;;;;;;5114807;28;20199;-61
2022/12/09 13:01:28;;;;;;;7.63;6.10;;;;;;;;;;5114274;28;20636;-60
2022/12/09 13:03:58;;;;;;;11.00;7.13;;;;;;;;;;5115160;28;20188;-60
2022/12/09 13:06:31;;;;;;;9.60;6.05;;;;;;;;;;5115325;28;20592;-60
2022/12/09 13:09:01;;;;;;;10.55;7.28;;;;;;;;;;5114793;28;20223;-60
2022/12/09 13:11:33;;;;;;;7.93;6.07;;;;;;;;;;5114660;28;20295;-60
2022/12/09 13:14:02;;;;;;;10.43;6.75;;;;;;;;;;5115033;28;20283;-60
2022/12/09 13:16:31;;;;;;;8.80;7.05;;;;;;;;;;5114867;28;20192;-60
2022/12/09 13:19:01;;;;;;;8.23;6.80;;;;;;;;;;5114691;28;20197;-60
2022/12/09 13:21:28;;;;;;;8.35;5.85;;;;;;;;;;5114585;28;20283;-60
2022/12/09 13:24:00;;;;;;;8.27;6.35;;;;;;;;;;5114747;28;20275;-60
2022/12/09 13:26:33;;;;;;;13.50;7.10;;;;;;;;;;5114725;28;20188;-60
2022/12/09 13:29:03;;;;;;;10.10;7.95;;;;;;;;;;5114467;28;20226;-60
2022/12/09 13:31:30;;;;;;;9.63;6.80;;;;;;;;;;5114796;28;20275;-60
2022/12/09 13:34:00;;;;;;;11.05;8.85;;;;;;;;;;5114300;28;20188;-61
2022/12/09 13:36:34;;;;;;;8.88;6.72;;;;;;;;;;5114313;28;20191;-60
2022/12/09 13:39:01;;;;;;;9.65;6.75;;;;;;;;;;5114506;28;20195;-60
2022/12/09 13:44:33;;;;;;;8.80;7.05;;;;;;;;;;5114058;28;20249;-60
2022/12/09 13:47:18;;;;;;;9.55;7.00;;;;;;;;;;5114104;28;20223;-60
2022/12/09 13:49:52;;;;;;;8.65;6.70;;;;;;;;;;5114156;28;20279;-60
2022/12/09 13:52:38;;;;;;;9.55;7.38;;;;;;;;;;5113870;28;20189;-60
2022/12/09 13:55:06;;;;;;;10.20;7.45;;;;;;;;;;5113809;28;20275;-60
2022/12/09 13:57:40;;;;;;;8.25;6.85;;;;;;;;;;5113939;28;20283;-60
2022/12/09 14:00:07;;;;;;;14.68;7.68;;;;;;;;;;5113680;28;20655;-60
2022/12/09 14:02:36;;;;;;;11.30;8.10;;;;;;;;;;5113977;28;20190;-60
2022/12/09 14:05:07;;;;;;;10.27;7.93;;;;;;;;;;5113772;28;20291;-60
2022/12/09 14:07:38;;;;;;;11.32;7.88;;;;;;;;;;5113605;28;20188;-60
2022/12/09 14:10:06;;;;;;;11.48;8.23;;;;;;;;;;5113960;28;20192;-60
2022/12/09 14:12:51;;;;;;;11.60;8.35;;;;;;;;;;5113608;28;20276;-60
2022/12/09 14:15:33;;;;;;;10.25;8.60;;;;;;;;;;5112444;28;20189;-60
2022/12/09 14:18:03;;;;;;;9.95;8.23;;;;;;;;;;5113636;28;20199;-61
2022/12/09 14:20:32;;;;;;;9.57;8.05;;;;;;;;;;5113857;28;20624;-61
2022/12/09 14:23:03;;;;;;;10.52;7.97;;;;;;;;;;5113460;28;20556;-61
2022/12/09 14:25:56;;;;;;;9.93;7.72;;;;;;;;;;5113535;28;20196;-61
2022/12/09 14:28:53;;;;;;;10.65;7.55;;;;;;;;;;5113363;28;20316;-61
2022/12/09 14:31:38;;;;;;;18.73;8.77;;;;;;;;;;5113739;28;20198;-61
2022/12/09 14:34:18;;;;;;;11.05;7.95;;;;;;;;;;5113480;28;20188;-61
2022/12/09 14:36:51;;;;;;;11.98;8.23;;;;;;;;;;5113219;28;20196;-60
2022/12/09 14:39:20;;;;;;;12.23;8.32;;;;;;;;;;5113484;28;20276;-61
2022/12/09 14:41:50;;;;;;;8.60;7.30;;;;;;;;;;5113431;28;20194;-61
2022/12/09 14:44:22;;;;;;;11.43;8.07;;;;;;;;;;5113225;28;20192;-61
2022/12/09 14:46:50;;;;;;;11.32;8.18;;;;;;;;;;5113089;28;20222;-61